Time;durP1;ratioP1;P1;durP2;ratioP2;P2;SDS_P1;SDS_P2;PMS_P1;PMS_P2;Temp;Humidity;BMP_temperature;BMP_pressure;BME280_temperature;BME280_humidity;BME280_pressure;Samples;Min_cycle;Max_cycle;Signal;HPM_P1;HPM_P2
2021/12/22 00:01:24;;;;;;;20.40;8.48;;;;;;;6.57;49.90;102455.28;4940057;28;96793;-73
2021/12/22 00:03:54;;;;;;;19.73;8.27;;;;;;;6.58;50.05;102456.16;4936030;28;97271;-73
2021/12/22 00:06:23;;;;;;;18.58;8.88;;;;;;;6.62;50.01;102455.34;4947082;28;99074;-74
2021/12/22 00:08:49;;;;;;;15.18;8.35;;;;;;;6.73;49.47;102445.78;4941001;28;98029;-74
2021/12/22 00:11:16;;;;;;;18.42;7.57;;;;;;;7.00;48.61;102452.97;4939319;28;96858;-74
2021/12/22 00:13:42;;;;;;;17.33;8.65;;;;;;;6.49;49.89;102443.88;4942053;28;96957;-74
2021/12/22 00:16:09;;;;;;;18.85;8.02;;;;;;;6.65;49.60;102444.84;4942115;28;99447;-73
2021/12/22 00:18:35;;;;;;;16.50;7.68;;;;;;;6.74;49.15;102456.31;4936989;28;99383;-74
2021/12/22 00:21:04;;;;;;;17.13;7.10;;;;;;;6.59;49.25;102457.94;4938069;28;97279;-74
2021/12/22 00:23:31;;;;;;;17.92;8.20;;;;;;;6.45;49.47;102454.31;4931714;28;96982;-73
2021/12/22 00:25:58;;;;;;;17.38;8.50;;;;;;;6.75;49.10;102458.09;4933754;28;98952;-74
2021/12/22 00:28:25;;;;;;;16.10;7.82;;;;;;;6.75;49.38;102458.09;4940273;28;99058;-72
2021/12/22 00:30:52;;;;;;;13.30;6.80;;;;;;;6.78;48.60;102458.09;4936941;28;96762;-73
2021/12/22 00:33:19;;;;;;;12.70;7.05;;;;;;;6.82;49.04;102466.00;4941966;28;96947;-74
2021/12/22 00:35:45;;;;;;;19.67;8.52;;;;;;;6.56;49.39;102456.19;4935736;28;98352;-74
2021/12/22 00:38:15;;;;;;;13.10;6.13;;;;;;;6.59;49.34;102466.69;4947726;28;99111;-73
2021/12/22 00:40:43;;;;;;;13.88;6.22;;;;;;;6.72;48.53;102463.28;4947714;28;96985;-72
2021/12/22 00:43:10;;;;;;;15.00;6.05;;;;;;;6.65;48.91;102469.38;4952909;28;96781;-73
2021/12/22 00:45:37;;;;;;;15.30;6.68;;;;;;;6.76;48.62;102475.56;4961673;28;98296;-73
2021/12/22 00:48:05;;;;;;;14.60;6.35;;;;;;;6.43;48.74;102475.34;4956740;28;97880;-73
2021/12/22 00:50:33;;;;;;;10.90;6.32;;;;;;;6.36;49.27;102471.78;4966725;28;97032;-74
2021/12/22 00:52:59;;;;;;;18.52;6.72;;;;;;;6.46;49.67;102479.72;4951117;28;96759;-73
2021/12/22 00:55:28;;;;;;;12.35;5.60;;;;;;;6.58;49.34;102478.06;4946138;28;99307;-73
2021/12/22 00:57:55;;;;;;;16.42;5.82;;;;;;;6.73;49.65;102480.81;4937615;28;98919;-74
2021/12/22 01:00:23;;;;;;;12.55;5.97;;;;;;;6.53;49.50;102476.28;4930058;28;97034;-74
2021/12/22 01:02:50;;;;;;;14.32;6.18;;;;;;;6.49;49.36;102485.88;4933350;28;96917;-73
2021/12/22 01:05:17;;;;;;;13.65;6.50;;;;;;;6.35;49.21;102480.50;4938384;28;99216;-73
2021/12/22 01:07:47;;;;;;;15.43;6.70;;;;;;;6.54;48.83;102470.16;4939265;28;98148;-74
2021/12/22 01:10:15;;;;;;;15.75;6.80;;;;;;;6.71;48.81;102479.94;4937386;28;96771;-73
2021/12/22 01:12:43;;;;;;;21.48;7.20;;;;;;;6.76;48.90;102472.09;4944697;28;97265;-73
2021/12/22 01:15:12;;;;;;;16.10;6.65;;;;;;;6.58;49.09;102474.56;4932101;28;98952;-73
2021/12/22 01:17:43;;;;;;;14.95;6.47;;;;;;;6.50;49.07;102468.38;4950156;28;99340;-74
2021/12/22 01:20:18;;;;;;;14.10;6.68;;;;;;;6.40;49.19;102475.28;4941512;28;97556;-73
2021/12/22 01:22:48;;;;;;;14.02;6.28;;;;;;;6.58;48.41;102474.56;4940663;28;96741;-73
2021/12/22 01:25:18;;;;;;;16.23;7.82;;;;;;;6.62;48.39;102472.00;4932171;28;99321;-73
2021/12/22 01:27:47;;;;;;;19.33;7.07;;;;;;;6.64;48.47;102479.84;4942352;28;99252;-73
2021/12/22 01:30:18;;;;;;;15.63;6.63;;;;;;;6.87;48.26;102488.81;4937390;28;97587;-72
2021/12/22 01:32:45;;;;;;;21.15;6.82;;;;;;;6.47;47.94;102484.09;4942827;28;96843;-73
2021/12/22 01:35:14;;;;;;;16.08;7.32;;;;;;;6.80;47.72;102480.00;4944395;28;100293;-73
2021/12/22 01:37:41;;;;;;;15.98;6.97;;;;;;;6.79;48.64;102491.38;4937802;28;99099;-73
2021/12/22 01:40:09;;;;;;;14.38;7.40;;;;;;;6.72;48.27;102489.56;4948015;28;97009;-73
2021/12/22 01:42:36;;;;;;;22.00;7.75;;;;;;;6.58;48.68;102490.31;4954688;28;96973;-73
2021/12/22 01:45:25;;;;;;;16.45;7.60;;;;;;;6.59;49.05;102492.97;4935813;28;98980;-72
2021/12/22 01:50:40;;;;;;;16.58;8.02;;;;;;;6.74;48.14;102500.09;4931228;28;97118;-73
2021/12/22 01:53:10;;;;;;;22.13;8.52;;;;;;;6.79;48.43;102501.00;4941602;28;96843;-73
2021/12/22 01:55:38;;;;;;;20.42;9.07;;;;;;;6.80;48.41;102498.41;4947937;28;99727;-72
2021/12/22 01:58:11;;;;;;;24.05;9.43;;;;;;;6.80;47.75;102495.78;4939056;28;99520;-73
2021/12/22 02:00:39;;;;;;;19.52;8.65;;;;;;;6.78;48.72;102494.00;4933786;28;96763;-73
2021/12/22 02:03:05;;;;;;;17.58;8.73;;;;;;;7.04;48.09;102502.06;4948662;28;96985;-73
2021/12/22 02:05:32;;;;;;;19.52;8.65;;;;;;;6.66;48.23;102500.03;4939943;28;99001;-73
2021/12/22 02:08:01;;;;;;;19.25;8.00;;;;;;;6.85;47.71;102500.16;4944402;28;98497;-73
2021/12/22 02:10:39;;;;;;;17.13;8.05;;;;;;;6.73;47.63;102486.09;4939541;28;96750;-73
2021/12/22 02:13:05;;;;;;;17.13;8.32;;;;;;;6.86;47.94;102486.16;4940909;28;96789;-73
2021/12/22 02:15:34;;;;;;;18.35;8.00;;;;;;;6.65;47.94;102477.25;4941394;28;98807;-74
2021/12/22 02:18:04;;;;;;;14.02;6.85;;;;;;;6.69;47.23;102479.06;4938130;28;98763;-73
2021/12/22 02:20:32;;;;;;;15.73;8.23;;;;;;;6.47;47.66;102477.09;4935625;28;97823;-73
2021/12/22 02:22:59;;;;;;;14.65;7.30;;;;;;;6.67;47.68;102475.53;4938654;28;96999;-73
2021/12/22 02:25:33;;;;;;;13.73;7.75;;;;;;;6.67;47.63;102480.78;4930097;28;101026;-73
2021/12/22 02:28:02;;;;;;;16.52;7.40;;;;;;;6.84;47.39;102477.38;4942668;28;98833;-73
2021/12/22 02:30:29;;;;;;;12.38;7.15;;;;;;;6.82;47.06;102480.03;4930491;28;96736;-73
2021/12/22 02:35:45;;;;;;;14.02;7.60;;;;;;;6.66;47.70;102467.63;4933483;28;97303;-73
2021/12/22 02:38:17;;;;;;;18.83;8.23;;;;;;;6.72;48.15;102470.28;4930908;28;99339;-73
2021/12/22 02:40:45;;;;;;;22.60;8.20;;;;;;;6.74;47.66;102471.19;4938463;28;97633;-73
2021/12/22 02:43:14;;;;;;;17.67;7.63;;;;;;;6.86;47.45;102468.66;4931181;28;96816;-73
2021/12/22 02:45:40;;;;;;;15.60;8.38;;;;;;;6.73;48.09;102469.44;4943012;28;99028;-74
2021/12/22 02:48:06;;;;;;;15.73;7.80;;;;;;;6.74;48.06;102474.72;4942593;28;98001;-73
2021/12/22 02:50:36;;;;;;;16.02;7.82;;;;;;;6.49;47.91;102467.50;4939598;28;96671;-73
2021/12/22 02:53:09;;;;;;;16.10;8.02;;;;;;;6.44;48.12;102466.56;4935553;28;96828;-73
2021/12/22 02:55:46;;;;;;;13.52;7.43;;;;;;;6.42;48.57;102463.06;4940879;28;99040;-72
2021/12/22 02:58:21;;;;;;;20.10;8.00;;;;;;;6.59;47.96;102473.69;4935811;28;99336;-73
2021/12/22 03:01:01;;;;;;;16.77;8.57;;;;;;;6.67;47.44;102469.38;4943928;28;97134;-73
2021/12/22 03:03:34;;;;;;;14.45;7.55;;;;;;;6.68;47.64;102472.03;4935209;28;97153;-74
2021/12/22 03:06:05;;;;;;;14.75;7.63;;;;;;;6.61;47.79;102467.59;4931521;28;99330;-74
2021/12/22 03:08:33;;;;;;;14.15;7.50;;;;;;;6.67;47.67;102470.28;4929670;28;99499;-74
2021/12/22 03:10:59;;;;;;;16.35;7.95;;;;;;;6.69;47.06;102467.66;4933329;28;96775;-74
2021/12/22 03:13:26;;;;;;;14.90;8.05;;;;;;;6.70;47.48;102465.03;4946313;28;97246;-73
2021/12/22 03:15:52;;;;;;;16.77;7.90;;;;;;;6.63;47.97;102467.63;4929466;28;99587;-74
2021/12/22 03:18:19;;;;;;;14.45;7.10;;;;;;;6.85;47.22;102464.25;4927940;28;99870;-72
2021/12/22 03:20:52;;;;;;;12.57;6.70;;;;;;;6.81;47.01;102462.50;4934733;28;96763;-72
2021/12/22 03:23:21;;;;;;;14.05;6.70;;;;;;;6.73;47.50;102465.06;4939173;28;97216;-72
2021/12/22 03:25:49;;;;;;;15.98;7.57;;;;;;;6.73;47.13;102462.44;4928722;28;98881;-73
2021/12/22 06:06:50;;;;;;;;;;;;;;;;;;;;;
2021/12/22 06:13:09;;;;;;;;;;;;;;;;;;;;;
2021/12/22 06:16:29;;;;;;;;;;;;;;;;;;;;;
2021/12/22 09:28:28;;;;;;;28.20;14.70;;;;;;;6.82;44.64;102443.25;5851643;22;97059;-72
2021/12/22 09:30:56;;;;;;;32.13;15.40;;;;;;;7.06;44.22;102443.38;4941710;28;99067;-72
2021/12/22 09:33:23;;;;;;;34.38;15.30;;;;;;;7.24;43.76;102447.84;4947587;28;97113;-72
2021/12/22 09:35:52;;;;;;;31.92;15.35;;;;;;;7.22;43.35;102445.22;4957262;28;96937;-73
2021/12/22 09:38:19;;;;;;;30.13;15.32;;;;;;;7.31;43.33;102435.63;4955532;28;99007;-74
2021/12/22 09:40:46;;;;;;;28.95;14.88;;;;;;;7.05;43.18;102446.00;4933453;28;100057;-73
2021/12/22 09:43:13;;;;;;;33.83;14.48;;;;;;;7.23;43.28;102443.47;4924539;28;97312;-73
2021/12/22 09:45:45;;;;;;;30.38;15.68;;;;;;;7.35;43.19;102435.63;4932788;28;96959;-74
2021/12/22 09:48:48;;;;;;;31.77;15.20;;;;;;;7.42;42.53;102423.38;4933230;28;99242;-74
2021/12/22 09:54:01;;;;;;;31.70;15.60;;;;;;;6.96;43.54;102431.03;4932610;28;96768;-73
2021/12/22 09:56:28;;;;;;;27.50;14.85;;;;;;;7.36;42.94;102415.47;4937449;28;96995;-73
2021/12/22 09:58:55;;;;;;;32.13;16.17;;;;;;;7.22;43.17;102425.91;4932023;28;99150;-73
2021/12/22 10:01:25;;;;;;;32.50;16.88;;;;;;;7.05;43.36;102417.09;4934162;28;102024;-75
2021/12/22 10:03:53;;;;;;;33.58;17.17;;;;;;;7.48;42.76;102412.91;4930661;28;97277;-73
2021/12/22 10:06:19;;;;;;;30.40;14.82;;;;;;;7.76;41.97;102413.84;4936178;28;97312;-74
2021/12/22 10:08:54;;;;;;;32.80;16.10;;;;;;;7.87;41.64;102420.03;4935335;28;99471;-73
2021/12/22 10:11:21;;;;;;;32.38;16.65;;;;;;;7.56;41.73;102419.94;4936251;28;98288;-73
2021/12/22 10:13:48;;;;;;;36.53;16.42;;;;;;;7.39;42.58;102416.38;4938687;28;97460;-74
2021/12/22 10:16:16;;;;;;;33.80;15.93;;;;;;;7.60;42.44;102410.31;4935193;28;96912;-74
2021/12/22 10:18:45;;;;;;;31.20;17.17;;;;;;;7.76;41.95;102412.09;4940879;28;97833;-73
2021/12/22 10:21:13;;;;;;;35.45;16.58;;;;;;;8.16;41.12;102412.16;4937627;28;99465;-74
2021/12/22 10:23:43;;;;;;;32.03;14.95;;;;;;;7.64;41.79;102403.31;4940576;28;96861;-74
2021/12/22 10:26:10;;;;;;;34.90;17.38;;;;;;;7.84;41.58;102405.13;4929867;28;96814;-73
2021/12/22 10:28:52;;;;;;;28.45;16.17;;;;;;;8.00;41.19;102400.75;4936154;28;99081;-74
2021/12/22 10:31:20;;;;;;;34.53;17.08;;;;;;;8.06;41.56;102406.03;4935696;28;98091;-73
2021/12/22 10:33:48;;;;;;;34.97;17.42;;;;;;;7.89;41.64;102400.72;4934561;28;96718;-74
2021/12/22 10:36:17;;;;;;;33.15;16.67;;;;;;;8.06;41.42;102398.13;4933941;28;96901;-72
2021/12/22 10:38:50;;;;;;;34.65;18.30;;;;;;;8.06;41.11;102400.78;4933634;28;99222;-72
2021/12/22 10:41:17;;;;;;;34.53;16.13;;;;;;;7.83;41.47;102397.22;4938251;28;98777;-73
2021/12/22 10:43:46;;;;;;;34.70;16.88;;;;;;;7.86;41.06;102399.84;4927434;28;97394;-74
2021/12/22 10:46:26;;;;;;;37.67;17.85;;;;;;;7.97;41.17;102390.22;4938696;28;96906;-74
2021/12/22 10:49:15;;;;;;;31.60;14.70;;;;;;;7.94;40.89;102398.13;4922924;28;99506;-73
2021/12/22 10:51:43;;;;;;;31.20;16.05;;;;;;;8.04;41.04;102399.88;4938872;28;98165;-73
2021/12/22 10:54:14;;;;;;;30.92;15.68;;;;;;;7.97;40.97;102392.84;4928441;28;97689;-73
2021/12/22 10:56:42;;;;;;;29.10;16.23;;;;;;;8.09;40.91;102389.34;4922456;28;97410;-73
2021/12/22 10:59:12;;;;;;;30.10;15.52;;;;;;;8.23;40.54;102388.47;4939523;28;98947;-72
2021/12/22 11:01:40;;;;;;;33.50;15.65;;;;;;;8.09;40.36;102390.22;4927041;28;99019;-72
2021/12/22 11:04:17;;;;;;;27.73;15.18;;;;;;;8.21;39.78;102379.69;4934442;28;97212;-72
2021/12/22 11:06:43;;;;;;;26.60;15.35;;;;;;;7.93;41.10;102383.22;4928667;28;96945;-72
2021/12/22 11:09:13;;;;;;;33.15;15.35;;;;;;;8.12;40.78;102373.56;4923082;28;98933;-72
2021/12/22 11:11:43;;;;;;;23.75;15.00;;;;;;;7.89;40.75;102381.41;4929201;28;99101;-73
2021/12/22 11:14:12;;;;;;;28.95;15.40;;;;;;;7.76;40.65;102379.66;4925331;28;97369;-72
2021/12/22 11:16:57;;;;;;;27.10;15.43;;;;;;;7.73;41.46;102367.38;4932252;28;97753;-72
2021/12/22 11:19:29;;;;;;;27.92;15.10;;;;;;;7.91;40.51;102374.41;4931068;28;99437;-72
2021/12/22 11:22:11;;;;;;;31.60;16.80;;;;;;;7.90;40.74;102372.66;4933342;28;99045;-72
2021/12/22 11:24:43;;;;;;;26.45;14.50;;;;;;;8.09;40.39;102371.78;4933440;28;97272;-73
2021/12/22 11:27:13;;;;;;;27.73;15.65;;;;;;;8.04;39.98;102368.28;4927891;28;97391;-73
2021/12/22 11:29:45;;;;;;;26.95;15.27;;;;;;;8.03;40.21;102371.78;4925414;28;99276;-73
2021/12/22 11:32:13;;;;;;;26.30;15.23;;;;;;;8.32;40.35;102363.94;4925781;28;99143;-73
2021/12/22 11:34:47;;;;;;;27.30;15.13;;;;;;;8.06;40.19;102371.81;4931840;28;96818;-73
2021/12/22 11:37:14;;;;;;;27.25;15.45;;;;;;;8.01;40.36;102366.53;4931415;28;96811;-73
2021/12/22 11:39:41;;;;;;;30.15;16.55;;;;;;;7.98;40.40;102360.38;4932386;28;98953;-73
2021/12/22 11:42:09;;;;;;;29.00;15.30;;;;;;;8.14;40.27;102367.41;4928310;28;99935;-73
2021/12/22 11:44:38;;;;;;;28.55;16.15;;;;;;;8.15;40.60;102361.25;4932686;28;97316;-73
2021/12/22 11:47:08;;;;;;;31.23;16.52;;;;;;;8.30;40.48;102361.31;4936995;28;97354;-73
2021/12/22 11:49:37;;;;;;;33.33;16.75;;;;;;;8.18;40.25;102347.22;4928463;28;99498;-72
2021/12/22 11:52:29;;;;;;;31.05;16.17;;;;;;;8.42;40.15;102349.00;4930660;28;98822;-73
2021/12/22 11:55:09;;;;;;;32.63;16.00;;;;;;;8.45;39.95;102347.25;4929958;28;97130;-72
2021/12/22 11:57:39;;;;;;;29.17;16.67;;;;;;;8.50;40.52;102348.09;4936439;28;96995;-74
2021/12/22 12:00:26;;;;;;;30.85;16.48;;;;;;;8.15;40.82;102347.22;4921372;28;99625;-73
2021/12/22 12:02:52;;;;;;;;;;;;;;;8.16;40.22;102341.97;4932867;28;99411;-72
2021/12/22 12:05:21;;;;;;;35.08;16.73;;;;;;;8.04;40.52;102343.72;4935783;28;96772;-74
2021/12/22 12:07:53;;;;;;;31.27;16.08;;;;;;;8.23;40.72;102341.06;4931790;28;97249;-72
2021/12/22 12:10:39;;;;;;;36.22;17.77;;;;;;;8.10;40.69;102336.69;4928248;28;102088;-73
2021/12/22 12:13:15;;;;;;;33.17;17.05;;;;;;;8.10;40.35;102334.06;4943010;28;98131;-73
2021/12/22 12:21:59;;;;;;;34.60;17.48;;;;;;;8.00;41.16;102341.09;4943569;28;98056;-73
2021/12/22 12:24:43;;;;;;;29.48;17.05;;;;;;;7.98;41.20;102326.16;4948168;28;98287;-74
2021/12/22 12:27:55;;;;;;;34.00;17.75;;;;;;;7.72;41.68;102330.53;4950174;28;96935;-73
2021/12/22 12:30:27;;;;;;;32.78;16.88;;;;;;;7.49;42.65;102315.56;4896026;28;97027;-72
2021/12/22 12:32:57;;;;;;;34.50;17.55;;;;;;;7.96;41.95;102327.91;4924581;28;98012;-73
2021/12/22 12:35:28;;;;;;;31.60;17.63;;;;;;;7.72;42.15;102327.91;4935283;28;98228;-73
2021/12/22 12:38:03;;;;;;;32.90;16.17;;;;;;;7.20;42.89;102326.03;4924674;28;97259;-74
2021/12/22 12:41:11;;;;;;;30.50;16.00;;;;;;;7.87;42.49;102322.66;4926958;28;97162;-73
2021/12/22 12:44:09;;;;;;;28.88;15.50;;;;;;;7.84;42.08;102309.50;4928922;28;99678;-74
2021/12/22 12:46:39;;;;;;;29.67;16.02;;;;;;;7.77;41.94;102307.72;4926274;28;99216;-74
2021/12/22 12:49:36;;;;;;;30.02;15.18;;;;;;;7.96;41.50;102309.47;4929631;28;97295;-73
2021/12/22 12:52:07;;;;;;;31.65;15.75;;;;;;;8.04;41.37;102302.47;4932447;28;97001;-73
2021/12/22 12:54:39;;;;;;;29.30;14.25;;;;;;;7.70;41.25;102311.22;4931795;28;98936;-73
2021/12/22 12:57:26;;;;;;;29.92;14.95;;;;;;;7.75;41.20;102305.09;4932666;28;99214;-73
2021/12/22 13:00:02;;;;;;;26.77;14.27;;;;;;;7.73;42.02;102300.72;4934588;28;96761;-74
2021/12/22 13:02:31;;;;;;;30.58;16.48;;;;;;;7.74;41.13;102305.13;4932725;28;98023;-73
2021/12/22 13:05:01;;;;;;;26.95;13.02;;;;;;;7.67;40.91;102295.44;4931128;28;99767;-73
2021/12/22 13:07:27;;;;;;;25.92;13.35;;;;;;;7.92;41.13;102302.47;4936597;28;99218;-74
2021/12/22 13:09:59;;;;;;;24.35;13.93;;;;;;;8.13;41.03;102291.94;4931162;28;97926;-74
2021/12/22 13:12:36;;;;;;;25.60;14.13;;;;;;;8.05;40.84;102292.81;4942312;28;98759;-74
2021/12/22 13:17:58;;;;;;;25.90;13.88;;;;;;;8.20;40.45;102285.78;4938388;28;97103;-75
2021/12/22 13:20:28;;;;;;;29.10;15.55;;;;;;;8.09;40.92;102279.66;4925996;28;99441;-72
2021/12/22 13:22:57;;;;;;;31.23;15.32;;;;;;;8.30;41.40;102278.75;4922133;28;99643;-73
2021/12/22 13:25:26;;;;;;;34.30;15.93;;;;;;;8.54;40.53;102272.56;4931938;28;101286;-73
2021/12/22 13:27:53;;;;;;;31.40;16.20;;;;;;;8.60;40.30;102278.69;4928549;28;99154;-73
2021/12/22 13:30:23;;;;;;;28.85;15.45;;;;;;;8.35;40.76;102274.38;4924221;28;96910;-73
2021/12/22 13:32:58;;;;;;;29.83;15.15;;;;;;;8.40;40.77;102268.19;4931061;28;98964;-74
2021/12/22 13:35:36;;;;;;;33.40;14.43;;;;;;;8.50;40.33;102276.97;4929513;28;98920;-73
2021/12/22 13:38:07;;;;;;;27.02;14.40;;;;;;;8.43;40.28;102277.00;4930194;28;98048;-72
2021/12/22 13:40:41;;;;;;;23.33;13.10;;;;;;;8.45;40.38;102264.69;4928601;28;96876;-74
2021/12/22 13:43:17;;;;;;;36.83;13.63;;;;;;;8.32;40.75;102272.63;4928898;28;96817;-74
2021/12/22 13:45:45;;;;;;;30.23;15.27;;;;;;;8.36;40.44;102271.75;4931555;28;99450;-73
2021/12/22 13:48:17;;;;;;;23.75;13.35;;;;;;;8.16;40.43;102275.25;4931833;28;98745;-73
2021/12/22 13:50:44;;;;;;;25.65;14.25;;;;;;;8.01;41.14;102271.75;4936391;28;97296;-73
2021/12/22 13:53:11;;;;;;;28.35;14.77;;;;;;;8.04;40.91;102265.63;4930220;28;97367;-73
2021/12/22 13:55:37;;;;;;;26.17;14.32;;;;;;;8.17;40.74;102262.09;4938106;28;99196;-73
2021/12/22 13:58:34;;;;;;;23.75;13.48;;;;;;;8.07;40.97;102267.38;4934092;28;98995;-73
2021/12/22 14:01:18;;;;;;;28.08;14.32;;;;;;;7.84;42.01;102265.63;4930432;28;98367;-73
2021/12/22 14:03:46;;;;;;;29.88;14.13;;;;;;;8.08;41.38;102256.81;4929528;28;96963;-73
2021/12/22 14:06:20;;;;;;;30.48;14.43;;;;;;;8.04;41.92;102270.00;4930177;28;99032;-73
2021/12/22 14:08:46;;;;;;;28.88;14.20;;;;;;;7.83;41.85;102276.16;4932942;28;98991;-73
2021/12/22 14:11:32;;;;;;;25.17;13.73;;;;;;;7.70;41.93;102259.47;4933381;28;96845;-73
2021/12/22 14:14:20;;;;;;;26.00;14.07;;;;;;;7.72;42.21;102263.00;4935382;28;96758;-73
2021/12/22 14:16:48;;;;;;;29.25;13.50;;;;;;;7.52;42.60;102257.72;4922197;28;99115;-73
2021/12/22 14:19:16;;;;;;;25.75;13.05;;;;;;;7.37;42.56;102260.31;4933898;28;99091;-73
2021/12/22 14:21:43;;;;;;;28.70;13.77;;;;;;;7.37;42.48;102252.44;4932910;28;96907;-73
2021/12/22 14:24:09;;;;;;;24.92;12.80;;;;;;;7.42;43.08;102257.69;4934400;28;97914;-75
2021/12/22 14:26:46;;;;;;;25.45;13.57;;;;;;;7.49;42.50;102262.97;4934567;28;99452;-72
2021/12/22 14:29:13;;;;;;;22.85;12.40;;;;;;;7.45;42.48;102258.59;4929728;28;99031;-74
2021/12/22 14:31:54;;;;;;;24.92;12.73;;;;;;;7.38;42.40;102261.19;4927360;28;96767;-74
2021/12/22 14:34:20;;;;;;;24.42;12.52;;;;;;;7.23;43.30;102262.03;4934755;28;96832;-73
2021/12/22 14:36:49;;;;;;;22.92;12.60;;;;;;;7.19;43.08;102255.03;4941187;28;98622;-73
2021/12/22 14:39:15;;;;;;;24.50;12.48;;;;;;;7.28;42.91;102267.34;4930601;28;99291;-73
2021/12/22 14:41:42;;;;;;;22.98;13.02;;;;;;;7.22;42.90;102257.66;4929062;28;97150;-73
2021/12/22 14:44:21;;;;;;;22.67;13.10;;;;;;;7.28;42.67;102249.81;4935663;28;97381;-75
2021/12/22 14:46:51;;;;;;;22.02;12.52;;;;;;;7.32;42.76;102250.69;4932217;28;99000;-73
2021/12/22 14:49:20;;;;;;;25.75;13.23;;;;;;;7.03;43.04;102250.59;4930068;28;99616;-72
2021/12/22 14:51:48;;;;;;;23.42;13.82;;;;;;;7.03;43.58;102251.47;4926105;28;97854;-72
2021/12/22 14:54:20;;;;;;;25.27;13.63;;;;;;;7.10;43.49;102252.38;4937058;28;96835;-73
2021/12/22 14:56:48;;;;;;;23.02;12.23;;;;;;;7.17;43.36;102252.41;4922793;28;99558;-75
2021/12/22 14:59:16;;;;;;;25.67;14.05;;;;;;;6.89;43.64;102257.59;4932662;28;99199;-73
2021/12/22 15:01:43;;;;;;;26.60;13.13;;;;;;;6.90;43.84;102252.31;4930280;28;96919;-73
2021/12/22 15:04:11;;;;;;;26.63;13.93;;;;;;;6.93;43.79;102254.09;4934863;28;97101;-73
2021/12/22 15:06:37;;;;;;;25.55;14.13;;;;;;;6.97;43.77;102250.59;4929673;28;101481;-73
2021/12/22 15:09:05;;;;;;;26.23;14.00;;;;;;;7.03;43.79;102250.59;4933175;28;98669;-73
2021/12/22 15:11:32;;;;;;;25.27;13.77;;;;;;;6.82;44.20;102253.19;4932564;28;97017;-73
2021/12/22 15:13:59;;;;;;;27.88;13.73;;;;;;;6.83;43.78;102250.53;4924490;28;96797;-73
2021/12/22 15:16:28;;;;;;;24.67;13.13;;;;;;;6.70;43.80;102249.59;4930540;28;99671;-73
2021/12/22 15:18:56;;;;;;;27.40;13.82;;;;;;;6.63;44.27;102247.81;4929300;28;98926;-73
2021/12/22 15:21:25;;;;;;;38.25;13.82;;;;;;;6.70;44.70;102241.72;4931290;28;96909;-73
2021/12/22 15:23:52;;;;;;;26.98;14.43;;;;;;;6.63;44.17;102246.97;4929270;28;97091;-73
2021/12/22 15:26:19;;;;;;;26.90;14.63;;;;;;;6.74;44.51;102247.91;4930236;28;99818;-73
